Time;durP1;ratioP1;P1;durP2;ratioP2;P2;SDS_P1;SDS_P2;PMS_P1;PMS_P2;Temp;Humidity;BMP_temperature;BMP_pressure;BME280_temperature;BME280_humidity;BME280_pressure;Samples;Min_cycle;Max_cycle;Signal;HPM_P1;HPM_P2
2022/07/31 00:00:19;;;;;;;3.17;1.40;;;18.80;99.90;;;;;;5086145;28;20079;-69
2022/07/31 00:02:45;;;;;;;3.72;1.50;;;18.80;99.90;;;;;;5075737;28;20123;-69
2022/07/31 00:05:11;;;;;;;3.75;1.70;;;18.70;99.90;;;;;;5075560;28;20059;-68
2022/07/31 00:07:37;;;;;;;3.47;1.45;;;18.70;99.90;;;;;;5075607;28;20036;-69
2022/07/31 00:10:04;;;;;;;4.30;1.85;;;18.70;99.90;;;;;;5075619;28;20055;-68
2022/07/31 00:12:30;;;;;;;3.03;1.42;;;18.70;99.90;;;;;;5075279;28;20048;-68
2022/07/31 00:14:55;;;;;;;4.65;1.85;;;18.70;99.90;;;;;;5085268;28;20050;-69
2022/07/31 00:17:21;;;;;;;4.78;1.85;;;18.70;99.90;;;;;;5095986;28;20036;-68
2022/07/31 00:19:46;;;;;;;5.72;1.40;;;18.70;99.90;;;;;;5095599;28;20048;-68
2022/07/31 00:22:12;;;;;;;3.72;1.50;;;18.70;99.90;;;;;;5095742;28;20048;-69
2022/07/31 00:24:38;;;;;;;4.00;1.60;;;18.70;99.90;;;;;;5095418;28;20407;-68
2022/07/31 00:27:04;;;;;;;2.85;1.40;;;18.70;99.90;;;;;;5095348;28;20349;-69
2022/07/31 00:29:29;;;;;;;5.10;1.45;;;18.70;99.90;;;;;;5086579;28;20048;-69
2022/07/31 00:31:55;;;;;;;2.58;1.55;;;18.60;99.90;;;;;;5075449;28;20047;-69
2022/07/31 00:34:21;;;;;;;3.13;1.65;;;18.60;99.90;;;;;;5075261;28;20044;-69
2022/07/31 00:36:47;;;;;;;5.40;1.85;;;18.50;99.90;;;;;;5075278;28;20048;-69
2022/07/31 00:39:13;;;;;;;2.55;1.55;;;18.50;99.90;;;;;;5075071;28;20037;-69
2022/07/31 00:41:41;;;;;;;3.15;1.67;;;18.50;99.90;;;;;;5075398;28;20044;-68
2022/07/31 00:44:08;;;;;;;4.10;1.80;;;18.50;99.90;;;;;;5082448;28;20048;-69
2022/07/31 00:46:34;;;;;;;2.88;1.55;;;18.50;99.90;;;;;;5095059;28;20368;-69
2022/07/31 00:48:59;;;;;;;2.22;1.60;;;18.50;99.90;;;;;;5075007;28;20044;-69
2022/07/31 00:51:25;;;;;;;3.20;1.50;;;18.40;99.90;;;;;;5075194;28;20040;-69
2022/07/31 00:53:50;;;;;;;2.67;1.40;;;18.40;99.90;;;;;;5074797;28;20492;-69
2022/07/31 00:56:16;;;;;;;3.08;1.60;;;18.50;99.90;;;;;;5074666;28;20041;-69
2022/07/31 00:58:42;;;;;;;4.05;1.50;;;18.30;99.90;;;;;;5075202;28;20048;-69
2022/07/31 01:01:07;;;;;;;3.63;1.60;;;18.30;99.90;;;;;;5091033;28;20351;-69
2022/07/31 01:03:33;;;;;;;3.63;2.13;;;18.30;99.90;;;;;;5095115;28;20040;-69
2022/07/31 01:05:58;;;;;;;2.65;1.60;;;18.30;99.90;;;;;;5095340;28;20063;-69
2022/07/31 01:08:24;;;;;;;3.00;1.65;;;18.30;99.90;;;;;;5094899;28;20440;-68
2022/07/31 01:10:57;;;;;;;4.43;1.63;;;18.20;99.90;;;;;;5099534;28;20048;-69
2022/07/31 01:13:34;;;;;;;5.32;1.83;;;18.10;99.90;;;;;;5099362;28;20043;-68
2022/07/31 01:16:02;;;;;;;6.95;1.80;;;18.10;99.90;;;;;;5081446;28;20052;-69
2022/07/31 01:18:31;;;;;;;4.50;1.75;;;18.10;99.90;;;;;;5079122;28;20044;-69
2022/07/31 01:21:01;;;;;;;3.88;1.85;;;18.00;99.90;;;;;;5078850;28;20047;-69
2022/07/31 01:23:57;;;;;;;4.15;2.03;;;17.90;99.90;;;;;;5079040;28;20044;-69
2022/07/31 01:26:32;;;;;;;3.30;1.70;;;17.80;99.90;;;;;;5078060;28;20056;-69
2022/07/31 01:29:08;;;;;;;2.85;1.52;;;17.70;99.90;;;;;;5080466;28;20056;-69
2022/07/31 01:31:56;;;;;;;3.42;1.67;;;17.60;99.90;;;;;;5087108;28;20036;-69
2022/07/31 01:34:39;;;;;;;4.47;1.50;;;17.60;99.90;;;;;;5078731;28;20053;-68
2022/07/31 01:37:19;;;;;;;2.60;1.37;;;17.50;99.90;;;;;;5078660;28;20114;-68
2022/07/31 01:39:51;;;;;;;2.35;1.45;;;17.50;99.90;;;;;;5078350;28;20071;-69
2022/07/31 01:42:19;;;;;;;3.08;1.58;;;17.50;99.90;;;;;;5078269;28;20051;-69
2022/07/31 01:44:50;;;;;;;7.18;1.95;;;17.50;99.90;;;;;;5078684;28;20056;-69
2022/07/31 01:47:20;;;;;;;4.68;1.75;;;17.50;99.90;;;;;;5098474;28;20083;-69
2022/07/31 01:49:48;;;;;;;6.13;2.00;;;17.50;99.90;;;;;;5097535;28;20070;-69
2022/07/31 01:52:15;;;;;;;3.15;1.60;;;17.50;99.90;;;;;;5097711;28;20048;-69
2022/07/31 01:54:44;;;;;;;3.67;1.80;;;17.50;99.90;;;;;;5098266;28;20044;-68
2022/07/31 01:57:10;;;;;;;3.88;1.73;;;17.50;99.90;;;;;;5098324;28;20047;-69
2022/07/31 01:59:37;;;;;;;5.93;2.10;;;17.60;99.90;;;;;;5098360;28;20055;-69
2022/07/31 02:02:03;;;;;;;4.40;1.73;;;17.60;99.90;;;;;;5098335;28;20040;-68
2022/07/31 02:04:31;;;;;;;2.92;1.70;;;17.60;99.90;;;;;;5079893;28;20059;-68
2022/07/31 02:06:58;;;;;;;3.60;1.50;;;17.60;99.90;;;;;;5078063;28;20037;-68
2022/07/31 02:09:25;;;;;;;3.05;1.80;;;17.60;99.90;;;;;;5078174;28;20036;-68
2022/07/31 02:11:52;;;;;;;3.92;1.70;;;17.70;99.90;;;;;;5077950;28;20074;-69
2022/07/31 02:14:19;;;;;;;5.32;1.88;;;17.70;99.90;;;;;;5078037;28;20041;-68
2022/07/31 02:16:47;;;;;;;4.82;1.67;;;17.70;99.90;;;;;;5077783;28;20052;-69
2022/07/31 02:19:13;;;;;;;5.70;1.63;;;17.70;99.90;;;;;;5094531;28;20105;-69
2022/07/31 02:21:40;;;;;;;3.88;2.17;;;17.70;99.90;;;;;;5096965;28;20439;-69
2022/07/31 02:24:06;;;;;;;3.53;2.00;;;17.80;99.90;;;;;;5097725;28;20052;-69
2022/07/31 02:26:33;;;;;;;3.65;1.80;;;17.80;99.90;;;;;;5098003;28;20061;-69
2022/07/31 02:29:01;;;;;;;7.20;2.00;;;17.90;99.90;;;;;;5097698;28;20056;-69
2022/07/31 02:31:30;;;;;;;3.28;1.63;;;17.80;99.90;;;;;;5097626;28;20468;-68
2022/07/31 02:33:55;;;;;;;5.05;1.85;;;17.90;99.90;;;;;;5080104;28;20116;-69
2022/07/31 02:36:22;;;;;;;5.53;1.73;;;17.90;99.90;;;;;;5076978;28;20084;-69
2022/07/31 02:38:50;;;;;;;3.83;1.70;;;17.90;99.90;;;;;;5077184;28;20040;-69
2022/07/31 02:41:16;;;;;;;4.25;1.60;;;17.90;99.90;;;;;;5077455;28;20080;-69
2022/07/31 02:43:43;;;;;;;4.43;1.70;;;18.00;99.90;;;;;;5077537;28;20044;-69
2022/07/31 02:46:11;;;;;;;4.05;2.08;;;18.00;99.90;;;;;;5077386;28;20052;-69
2022/07/31 02:48:38;;;;;;;4.20;1.95;;;18.00;99.90;;;;;;5092912;28;20067;-69
2022/07/31 02:51:04;;;;;;;3.88;1.85;;;18.00;99.90;;;;;;5097072;28;20051;-68
2022/07/31 02:53:30;;;;;;;7.50;2.38;;;18.10;99.90;;;;;;5096698;28;20056;-69
2022/07/31 02:55:56;;;;;;;3.45;1.60;;;18.10;99.90;;;;;;5097230;28;20040;-69
2022/07/31 02:58:22;;;;;;;3.17;1.52;;;18.10;99.90;;;;;;5096946;28;20048;-69
2022/07/31 03:01:00;;;;;;;4.60;1.73;;;18.10;99.90;;;;;;5097294;28;20119;-69
2022/07/31 03:03:26;;;;;;;3.70;1.75;;;18.10;99.90;;;;;;5083007;28;20043;-69
2022/07/31 03:05:52;;;;;;;3.00;1.63;;;18.10;99.90;;;;;;5097294;28;20066;-68
2022/07/31 03:08:17;;;;;;;4.45;2.25;;;18.10;99.90;;;;;;5096880;28;20050;-69
2022/07/31 03:10:43;;;;;;;3.70;1.60;;;18.10;99.90;;;;;;5096669;28;20052;-69
2022/07/31 03:13:10;;;;;;;3.50;1.60;;;18.10;99.90;;;;;;5096740;28;20091;-69
2022/07/31 03:15:38;;;;;;;3.03;1.80;;;18.10;99.90;;;;;;5096636;28;20044;-69
2022/07/31 03:18:05;;;;;;;4.10;1.88;;;18.10;99.90;;;;;;5093533;28;20072;-69
2022/07/31 03:20:31;;;;;;;5.03;1.80;;;18.20;99.90;;;;;;5076795;28;20457;-68
2022/07/31 03:22:58;;;;;;;7.18;1.88;;;18.10;99.90;;;;;;5076681;28;20040;-70
2022/07/31 03:25:24;;;;;;;3.40;1.75;;;18.10;99.90;;;;;;5076516;28;20464;-69
2022/07/31 03:27:50;;;;;;;8.57;1.77;;;18.10;99.90;;;;;;5076386;28;20395;-69
2022/07/31 03:30:18;;;;;;;5.53;1.60;;;18.10;99.90;;;;;;5076188;28;20055;-70
2022/07/31 03:32:44;;;;;;;4.88;1.85;;;18.10;99.90;;;;;;5076897;28;20441;-69
2022/07/31 03:35:10;;;;;;;3.05;1.92;;;18.10;99.90;;;;;;5096442;28;20040;-69
2022/07/31 03:37:35;;;;;;;4.00;1.60;;;18.10;99.90;;;;;;5096202;28;20096;-69
2022/07/31 03:40:01;;;;;;;3.33;1.60;;;18.10;99.90;;;;;;5096443;28;20058;-68
2022/07/31 03:42:27;;;;;;;3.13;1.55;;;18.00;99.90;;;;;;5096346;28;20357;-69
2022/07/31 03:44:55;;;;;;;7.65;2.20;;;18.00;99.90;;;;;;5096151;28;20054;-69
2022/07/31 03:47:20;;;;;;;3.90;1.83;;;18.00;99.90;;;;;;5096513;28;20105;-69
2022/07/31 03:49:47;;;;;;;3.13;1.80;;;18.00;99.90;;;;;;5096480;28;20036;-70
2022/07/31 03:52:13;;;;;;;3.72;1.80;;;18.00;99.90;;;;;;5078817;28;20063;-70
2022/07/31 03:54:39;;;;;;;5.13;1.67;;;17.90;99.90;;;;;;5075864;28;20056;-69
2022/07/31 03:57:06;;;;;;;3.10;1.70;;;17.90;99.90;;;;;;5075847;28;20040;-69
2022/07/31 03:59:33;;;;;;;8.85;2.05;;;17.80;99.90;;;;;;5075640;28;20123;-68
2022/07/31 04:02:00;;;;;;;4.53;1.98;;;17.80;99.90;;;;;;5076041;28;20481;-69
2022/07/31 04:04:26;;;;;;;3.60;1.60;;;17.80;99.90;;;;;;5075731;28;20418;-69
2022/07/31 04:06:52;;;;;;;5.72;1.75;;;17.70;99.90;;;;;;5091250;28;20090;-69
2022/07/31 04:09:19;;;;;;;2.95;1.70;;;17.70;99.90;;;;;;5095164;28;20111;-69
2022/07/31 04:11:45;;;;;;;3.53;1.85;;;17.70;99.90;;;;;;5095805;28;20047;-69
2022/07/31 04:14:10;;;;;;;15.75;1.90;;;17.70;99.90;;;;;;5095812;28;20181;-68
2022/07/31 04:16:36;;;;;;;3.20;1.90;;;17.70;99.90;;;;;;5095567;28;20082;-69
2022/07/31 04:19:01;;;;;;;7.10;1.88;;;17.70;99.90;;;;;;5095922;28;20471;-69
2022/07/31 04:21:27;;;;;;;3.60;1.52;;;17.80;99.90;;;;;;5080662;28;20106;-69
2022/07/31 04:23:53;;;;;;;4.80;1.80;;;17.80;99.90;;;;;;5075323;28;20081;-69
2022/07/31 04:26:18;;;;;;;2.55;1.60;;;17.90;99.90;;;;;;5074924;28;20056;-68
2022/07/31 04:28:44;;;;;;;9.95;2.30;;;18.00;99.90;;;;;;5075115;28;20464;-68
2022/07/31 04:31:09;;;;;;;4.63;1.67;;;18.10;99.90;;;;;;5074910;28;20117;-69
2022/07/31 04:33:35;;;;;;;3.50;1.95;;;18.20;99.90;;;;;;5075287;28;20048;-69
2022/07/31 04:36:00;;;;;;;3.63;1.65;;;18.30;99.90;;;;;;5086835;28;20080;-69
2022/07/31 04:38:26;;;;;;;4.38;1.75;;;18.40;99.90;;;;;;5074828;28;20087;-68
2022/07/31 04:40:52;;;;;;;2.78;1.73;;;18.50;99.90;;;;;;5075010;28;20044;-69
2022/07/31 04:43:18;;;;;;;2.90;1.80;;;18.50;99.90;;;;;;5074769;28;20040;-69
2022/07/31 04:45:43;;;;;;;4.30;1.85;;;18.50;99.90;;;;;;5074844;28;20135;-69
2022/07/31 04:48:10;;;;;;;4.07;1.88;;;18.60;99.90;;;;;;5075302;28;20084;-69
2022/07/31 04:50:35;;;;;;;4.50;1.73;;;18.60;99.90;;;;;;5074941;28;20041;-69
2022/07/31 04:53:01;;;;;;;3.72;1.50;;;18.70;99.90;;;;;;5081302;28;20055;-68
2022/07/31 04:55:28;;;;;;;4.80;2.10;;;18.70;99.90;;;;;;5095137;28;20131;-69
2022/07/31 04:57:53;;;;;;;6.60;2.33;;;18.60;99.90;;;;;;5095092;28;20079;-68
2022/07/31 05:00:19;;;;;;;3.63;1.90;;;18.70;99.90;;;;;;5094969;28;20342;-68
2022/07/31 05:02:45;;;;;;;3.70;1.80;;;18.70;99.90;;;;;;5094979;28;20052;-69
2022/07/31 05:05:11;;;;;;;4.38;1.70;;;18.70;99.90;;;;;;5094949;28;20456;-69
2022/07/31 05:07:37;;;;;;;5.88;2.75;;;18.70;99.90;;;;;;5089088;28;20140;-69
2022/07/31 05:10:04;;;;;;;2.42;1.45;;;18.70;99.90;;;;;;5075774;28;20397;-69
2022/07/31 05:12:29;;;;;;;6.82;1.98;;;18.70;99.90;;;;;;5074678;28;20449;-69
2022/07/31 05:14:55;;;;;;;4.07;2.00;;;18.70;99.90;;;;;;5075135;28;20055;-69
2022/07/31 05:17:20;;;;;;;7.10;2.30;;;18.80;99.90;;;;;;5074602;28;20074;-69
2022/07/31 05:19:46;;;;;;;3.88;1.90;;;18.80;99.90;;;;;;5075125;28;20045;-68
2022/07/31 05:22:12;;;;;;;2.72;1.75;;;18.70;99.90;;;;;;5078998;28;20040;-69
2022/07/31 05:24:37;;;;;;;4.82;1.80;;;18.80;99.90;;;;;;5095230;28;20384;-69
2022/07/31 05:27:03;;;;;;;5.40;1.83;;;18.80;99.90;;;;;;5080598;28;20051;-69
2022/07/31 05:29:30;;;;;;;2.97;1.60;;;18.90;99.90;;;;;;5091673;28;20036;-69
2022/07/31 05:31:56;;;;;;;3.35;1.80;;;18.90;99.90;;;;;;5091176;28;20040;-69
2022/07/31 05:34:21;;;;;;;2.78;1.65;;;18.90;99.90;;;;;;5074451;28;20451;-69
2022/07/31 05:36:47;;;;;;;4.38;2.28;;;19.00;99.90;;;;;;5074732;28;20080;-67
2022/07/31 05:39:12;;;;;;;4.35;1.77;;;19.20;99.90;;;;;;5074650;28;20040;-67
2022/07/31 05:41:38;;;;;;;3.83;1.73;;;19.20;99.90;;;;;;5074304;28;20341;-67
2022/07/31 05:44:04;;;;;;;3.13;1.73;;;19.30;99.90;;;;;;5074325;28;20045;-67
2022/07/31 05:46:30;;;;;;;3.53;1.88;;;19.30;99.90;;;;;;5074895;28;20376;-68
2022/07/31 05:48:55;;;;;;;6.60;2.05;;;19.30;99.90;;;;;;5074616;28;20044;-68
2022/07/31 05:51:21;;;;;;;3.80;2.10;;;19.30;99.90;;;;;;5074549;28;20423;-67
2022/07/31 05:53:47;;;;;;;3.30;1.83;;;19.20;99.90;;;;;;5074148;28;20052;-67
2022/07/31 05:56:12;;;;;;;3.63;1.90;;;19.20;99.90;;;;;;5086032;28;20071;-67
2022/07/31 05:58:38;;;;;;;3.67;2.00;;;19.20;99.90;;;;;;5098174;28;20048;-68
2022/07/31 06:01:04;;;;;;;3.63;2.13;;;19.20;99.90;;;;;;5098241;28;20452;-67
2022/07/31 06:03:34;;;;;;;3.92;2.05;;;19.20;99.90;;;;;;5098453;28;20048;-68
2022/07/31 06:06:01;;;;;;;5.07;2.70;;;19.20;99.90;;;;;;5093567;28;20452;-69
2022/07/31 06:08:27;;;;;;;6.20;2.22;;;19.30;99.90;;;;;;5076663;28;20445;-69
2022/07/31 06:10:53;;;;;;;5.55;2.13;;;19.40;99.90;;;;;;5077946;28;20032;-69
2022/07/31 06:13:23;;;;;;;5.43;2.72;;;19.40;99.90;;;;;;5077710;28;20464;-68
2022/07/31 06:15:49;;;;;;;6.20;2.10;;;19.40;99.90;;;;;;5087812;28;20048;-70
2022/07/31 06:18:14;;;;;;;3.50;2.00;;;19.50;99.90;;;;;;5097624;28;20055;-69
2022/07/31 06:20:40;;;;;;;3.15;2.00;;;19.60;99.90;;;;;;5097964;28;20041;-69
2022/07/31 06:23:06;;;;;;;4.78;2.13;;;19.60;99.90;;;;;;5097921;28;20123;-69
2022/07/31 06:25:32;;;;;;;5.10;2.10;;;19.60;99.90;;;;;;5097549;28;20441;-69
2022/07/31 06:27:57;;;;;;;4.50;1.98;;;19.60;99.90;;;;;;5097587;28;20460;-69
2022/07/31 06:30:23;;;;;;;4.63;2.30;;;19.60;99.90;;;;;;5096844;28;20048;-69
2022/07/31 06:32:48;;;;;;;5.05;2.25;;;19.70;99.90;;;;;;5089784;28;20044;-69
2022/07/31 06:35:14;;;;;;;3.83;2.03;;;19.70;99.90;;;;;;5117909;28;20087;-69
2022/07/31 06:37:39;;;;;;;5.07;2.00;;;19.80;99.90;;;;;;5117430;28;20429;-69
2022/07/31 06:40:06;;;;;;;5.03;2.17;;;20.10;99.90;;;;;;5117673;28;20040;-69
2022/07/31 06:42:32;;;;;;;4.47;1.90;;;20.10;99.90;;;;;;5094221;28;20043;-69
2022/07/31 06:44:58;;;;;;;4.82;1.90;;;20.20;99.90;;;;;;5113809;28;20047;-69
2022/07/31 06:47:24;;;;;;;3.03;2.10;;;20.40;99.90;;;;;;5113610;28;20048;-70
2022/07/31 06:49:51;;;;;;;4.15;1.95;;;20.60;99.90;;;;;;5076814;28;20047;-70
2022/07/31 06:52:17;;;;;;;4.65;2.40;;;20.60;99.90;;;;;;5076341;28;20052;-70
2022/07/31 06:54:43;;;;;;;4.43;2.10;;;20.70;99.90;;;;;;5076739;28;20041;-69
2022/07/31 06:57:09;;;;;;;4.60;2.60;;;20.70;99.90;;;;;;5077100;28;20041;-69
2022/07/31 06:59:35;;;;;;;5.18;2.35;;;20.60;99.90;;;;;;5077235;28;20125;-69
2022/07/31 07:02:00;;;;;;;3.95;2.05;;;20.70;99.90;;;;;;5076913;28;20461;-68
2022/07/31 07:04:26;;;;;;;6.53;2.30;;;20.70;99.90;;;;;;5076825;28;20040;-68
2022/07/31 07:06:51;;;;;;;4.03;2.53;;;20.70;99.90;;;;;;5076246;28;20352;-69
2022/07/31 07:09:17;;;;;;;3.13;1.95;;;20.70;99.90;;;;;;5095878;28;20044;-69
2022/07/31 07:11:43;;;;;;;3.58;2.13;;;20.70;99.90;;;;;;5096808;28;20043;-68
2022/07/31 07:14:08;;;;;;;5.43;2.50;;;20.70;99.90;;;;;;5096761;28;20094;-69
2022/07/31 07:16:34;;;;;;;3.70;2.22;;;20.70;99.90;;;;;;5096798;28;20072;-69
2022/07/31 07:18:59;;;;;;;4.50;2.42;;;20.80;99.90;;;;;;5096708;28;20073;-69
2022/07/31 07:21:25;;;;;;;4.55;2.42;;;20.80;99.90;;;;;;5096846;28;20041;-70
2022/07/31 07:23:50;;;;;;;10.63;2.65;;;20.80;99.90;;;;;;5087721;28;20051;-70
2022/07/31 07:26:17;;;;;;;7.15;2.33;;;20.90;99.90;;;;;;5086852;28;20471;-69
2022/07/31 07:28:43;;;;;;;6.90;2.80;;;20.90;99.90;;;;;;5095662;28;20052;-69
2022/07/31 07:31:08;;;;;;;7.30;3.00;;;20.90;99.90;;;;;;5096571;28;20044;-69
2022/07/31 07:33:35;;;;;;;3.72;2.20;;;20.90;99.90;;;;;;5096457;28;20468;-68
2022/07/31 07:36:01;;;;;;;3.88;2.05;;;21.00;99.90;;;;;;5096581;28;20051;-69
2022/07/31 07:38:26;;;;;;;6.40;2.95;;;21.10;99.90;;;;;;5096343;28;20043;-68
2022/07/31 07:40:52;;;;;;;4.43;2.42;;;21.10;99.90;;;;;;5096363;28;20329;-69
2022/07/31 07:43:18;;;;;;;5.35;2.30;;;21.20;99.90;;;;;;5083692;28;20051;-69
2022/07/31 07:45:44;;;;;;;5.32;2.50;;;21.20;99.90;;;;;;5076273;28;20459;-68
2022/07/31 07:48:09;;;;;;;6.70;2.42;;;21.30;99.90;;;;;;5075945;28;20356;-68
2022/07/31 07:50:35;;;;;;;4.88;2.50;;;21.50;99.90;;;;;;5075931;28;20451;-68
2022/07/31 07:53:00;;;;;;;5.10;2.60;;;21.70;99.90;;;;;;5075124;28;20099;-69
2022/07/31 07:55:26;;;;;;;6.10;2.28;;;21.80;99.90;;;;;;5075605;28;20076;-69
2022/07/31 07:57:52;;;;;;;3.47;2.42;;;21.90;99.90;;;;;;5086113;28;20113;-69
2022/07/31 08:00:18;;;;;;;4.60;2.53;;;22.10;99.90;;;;;;5095122;28;20043;-70
2022/07/31 08:02:44;;;;;;;5.40;3.22;;;22.10;99.90;;;;;;5096148;28;20050;-70
2022/07/31 08:05:11;;;;;;;5.65;3.00;;;22.20;99.90;;;;;;5096112;28;20044;-69
2022/07/31 08:07:38;;;;;;;5.28;2.88;;;22.40;99.90;;;;;;5095337;28;20065;-68
2022/07/31 08:10:05;;;;;;;5.88;2.75;;;22.70;99.90;;;;;;5096431;28;20368;-69
2022/07/31 08:12:31;;;;;;;5.57;2.88;;;22.90;99.90;;;;;;5093954;28;20059;-70
2022/07/31 08:14:56;;;;;;;4.25;2.58;;;23.10;99.90;;;;;;5075497;28;20041;-70
2022/07/31 08:17:22;;;;;;;8.15;3.40;;;23.40;99.90;;;;;;5075427;28;20048;-69
2022/07/31 08:19:47;;;;;;;5.45;3.33;;;23.70;99.90;;;;;;5075290;28;20059;-70
2022/07/31 08:22:14;;;;;;;6.75;2.75;;;24.00;99.90;;;;;;5075256;28;20139;-70
2022/07/31 08:24:40;;;;;;;4.18;2.75;;;24.30;99.50;;;;;;5075610;28;20044;-70
2022/07/31 08:27:24;;;;;;;5.28;3.28;;;24.40;99.50;;;;;;5075213;28;20495;-70
2022/07/31 08:29:52;;;;;;;5.43;2.72;;;24.40;99.40;;;;;;5075282;28;20041;-70
2022/07/31 08:32:18;;;;;;;4.30;2.45;;;24.40;98.60;;;;;;5075259;28;20087;-69
2022/07/31 08:34:44;;;;;;;5.50;2.90;;;24.50;99.30;;;;;;5075308;28;20080;-68
2022/07/31 08:37:10;;;;;;;8.38;3.10;;;24.50;99.40;;;;;;5075685;28;20102;-69
2022/07/31 08:39:36;;;;;;;4.65;2.97;;;24.50;99.00;;;;;;5075321;28;20395;-70
2022/07/31 08:42:06;;;;;;;5.32;2.92;;;24.40;99.30;;;;;;5075820;28;20049;-69
2022/07/31 08:44:34;;;;;;;4.18;2.28;;;24.30;99.40;;;;;;5096030;28;20083;-68
2022/07/31 08:47:00;;;;;;;4.47;2.45;;;24.20;99.60;;;;;;5095600;28;20083;-68
2022/07/31 08:49:27;;;;;;;5.03;2.63;;;24.00;99.60;;;;;;5095392;28;20090;-68
2022/07/31 08:51:56;;;;;;;5.80;2.35;;;23.90;99.70;;;;;;5094829;28;20113;-67
2022/07/31 08:54:25;;;;;;;6.75;2.70;;;23.80;99.80;;;;;;5095049;28;20102;-67
2022/07/31 08:56:51;;;;;;;4.30;2.40;;;23.70;99.90;;;;;;5081240;28;20044;-66
2022/07/31 08:59:18;;;;;;;3.83;2.50;;;23.60;99.90;;;;;;5097043;28;20105;-66
2022/07/31 09:01:45;;;;;;;9.50;3.30;;;23.60;99.90;;;;;;5087665;28;20083;-67
2022/07/31 09:04:11;;;;;;;5.03;2.97;;;23.50;99.90;;;;;;5086696;28;20083;-66
2022/07/31 09:06:37;;;;;;;7.00;3.08;;;23.30;99.90;;;;;;5092538;28;20076;-66
2022/07/31 09:09:03;;;;;;;4.80;3.00;;;23.30;99.90;;;;;;5080341;28;20037;-67
2022/07/31 09:11:29;;;;;;;6.03;3.05;;;23.20;99.90;;;;;;5076033;28;20407;-66
2022/07/31 09:14:02;;;;;;;6.70;3.42;;;23.10;99.90;;;;;;5094911;28;20040;-67
2022/07/31 09:16:29;;;;;;;7.82;3.10;;;23.10;99.90;;;;;;5096243;28;20044;-67
2022/07/31 09:18:59;;;;;;;5.13;3.20;;;23.00;99.90;;;;;;5115699;28;20367;-66
2022/07/31 09:21:25;;;;;;;5.28;3.35;;;22.90;99.90;;;;;;5115141;28;20118;-66
2022/07/31 09:23:53;;;;;;;5.20;3.20;;;22.80;99.90;;;;;;5112759;28;21576;-66
2022/07/31 09:26:19;;;;;;;6.78;4.13;;;22.70;99.90;;;;;;5094888;28;20396;-66
2022/07/31 09:28:46;;;;;;;7.18;4.10;;;22.60;99.90;;;;;;5092303;28;20049;-69
2022/07/31 09:31:12;;;;;;;8.63;4.13;;;22.60;99.90;;;;;;5097343;28;20052;-66
2022/07/31 09:33:42;;;;;;;8.98;3.70;;;22.60;99.90;;;;;;5098037;28;20044;-67
2022/07/31 09:36:08;;;;;;;5.00;3.45;;;22.70;99.90;;;;;;5098850;28;20040;-66
2022/07/31 09:38:38;;;;;;;8.77;4.22;;;22.80;99.90;;;;;;5098478;28;20119;-68
2022/07/31 09:41:18;;;;;;;8.90;4.72;;;22.80;99.90;;;;;;5098727;28;20119;-68
2022/07/31 09:43:59;;;;;;;12.27;4.47;;;22.90;99.90;;;;;;5093633;28;20056;-69
2022/07/31 09:46:26;;;;;;;5.75;4.03;;;22.80;99.90;;;;;;5084441;28;20049;-70
2022/07/31 09:48:54;;;;;;;6.53;4.30;;;22.70;99.90;;;;;;5078267;28;20036;-69
2022/07/31 09:51:20;;;;;;;10.25;4.28;;;22.70;99.90;;;;;;5078292;28;20037;-69
2022/07/31 09:53:52;;;;;;;7.70;4.00;;;22.60;99.90;;;;;;5078133;28;20048;-69
2022/07/31 09:56:32;;;;;;;8.02;4.47;;;22.60;99.90;;;;;;5079415;28;20044;-69
2022/07/31 09:58:58;;;;;;;8.20;4.43;;;22.60;99.90;;;;;;5089324;28;20119;-71
2022/07/31 10:01:24;;;;;;;11.13;4.95;;;22.40;99.90;;;;;;5104687;28;20460;-69
2022/07/31 10:03:52;;;;;;;8.80;5.15;;;22.40;99.90;;;;;;5118390;28;20044;-68
2022/07/31 10:06:19;;;;;;;8.43;4.82;;;22.20;99.90;;;;;;5106069;27;20091;-68
2022/07/31 10:08:45;;;;;;;13.38;5.15;;;22.00;99.90;;;;;;5098001;28;20055;-68
2022/07/31 10:11:13;;;;;;;7.93;4.60;;;21.90;99.90;;;;;;5098591;28;20048;-68
2022/07/31 10:13:47;;;;;;;8.77;5.30;;;21.80;99.90;;;;;;5098406;28;20442;-68
2022/07/31 10:16:13;;;;;;;10.48;5.88;;;21.70;99.90;;;;;;5097991;28;20052;-69
2022/07/31 10:18:44;;;;;;;8.23;5.00;;;21.60;99.90;;;;;;5098093;28;20048;-70
2022/07/31 10:21:10;;;;;;;7.60;4.90;;;21.60;99.90;;;;;;5093516;28;20512;-70
2022/07/31 10:23:40;;;;;;;9.82;6.57;;;21.60;99.90;;;;;;5077957;28;20363;-69
2022/07/31 10:26:06;;;;;;;7.85;5.57;;;21.70;99.90;;;;;;5077480;28;20052;-69
2022/07/31 10:28:38;;;;;;;9.07;5.75;;;21.90;99.90;;;;;;5077480;28;20482;-70
2022/07/31 10:31:04;;;;;;;11.55;5.68;;;22.10;99.90;;;;;;5077367;28;20356;-66
2022/07/31 10:33:31;;;;;;;11.20;5.45;;;22.20;99.90;;;;;;5077529;28;20060;-66
2022/07/31 10:36:04;;;;;;;10.68;5.35;;;22.20;99.90;;;;;;5077208;28;20055;-65
2022/07/31 10:38:34;;;;;;;;;;;22.20;99.90;;;;;;5078186;28;20044;-66
2022/07/31 10:41:03;;;;;;;26.52;6.20;;;22.20;99.90;;;;;;5077552;28;19969;-65
2022/07/31 10:43:40;;;;;;;11.30;6.35;;;22.10;99.90;;;;;;5077239;28;20051;-67
2022/07/31 10:46:05;;;;;;;8.65;5.72;;;22.20;99.90;;;;;;5077448;28;20037;-67
2022/07/31 10:48:31;;;;;;;10.13;5.43;;;22.20;99.90;;;;;;5091080;28;20470;-66
2022/07/31 10:51:08;;;;;;;7.70;4.82;;;22.20;99.90;;;;;;5100192;28;20047;-67
2022/07/31 10:53:34;;;;;;;10.85;5.53;;;22.30;99.90;;;;;;5092443;28;20113;-67
2022/07/31 10:56:04;;;;;;;8.00;4.93;;;22.20;99.90;;;;;;5096829;28;20040;-66
2022/07/31 10:58:29;;;;;;;8.60;4.38;;;22.20;99.90;;;;;;5091660;28;20046;-66
2022/07/31 11:01:08;;;;;;;9.82;5.03;;;22.10;99.90;;;;;;5087090;28;20036;-67
2022/07/31 11:03:48;;;;;;;10.50;4.85;;;22.20;99.90;;;;;;5096209;28;20440;-66
2022/07/31 11:06:16;;;;;;;9.88;4.65;;;22.10;99.90;;;;;;5076690;28;20055;-66
2022/07/31 11:08:46;;;;;;;10.63;5.47;;;22.00;99.90;;;;;;5077268;28;20056;-66
2022/07/31 11:11:13;;;;;;;7.40;4.32;;;22.00;99.90;;;;;;5087500;28;20040;-66
2022/07/31 11:13:46;;;;;;;10.70;5.22;;;21.90;99.90;;;;;;5076457;28;20048;-66
2022/07/31 11:16:12;;;;;;;8.82;4.65;;;21.80;99.90;;;;;;5082090;28;20460;-67
2022/07/31 11:18:38;;;;;;;8.02;4.68;;;21.70;99.90;;;;;;5081854;28;20060;-66
2022/07/31 11:21:06;;;;;;;8.27;5.15;;;21.50;99.90;;;;;;5076520;28;20411;-67
2022/07/31 11:23:35;;;;;;;10.23;5.50;;;21.50;99.90;;;;;;5076785;28;20059;-67
2022/07/31 11:26:06;;;;;;;10.38;4.85;;;21.40;99.90;;;;;;5076316;28;20076;-67
2022/07/31 11:28:35;;;;;;;9.05;5.53;;;21.40;99.90;;;;;;5076786;28;20044;-66
2022/07/31 11:31:03;;;;;;;12.18;6.00;;;21.40;99.90;;;;;;5076013;28;20123;-68
2022/07/31 11:33:32;;;;;;;7.50;5.13;;;21.50;99.90;;;;;;5076242;28;20098;-67
2022/07/31 11:36:23;;;;;;;9.73;5.65;;;21.40;99.90;;;;;;5075976;28;20338;-68
2022/07/31 11:38:51;;;;;;;7.65;5.47;;;21.20;99.90;;;;;;5078923;28;20040;-68
2022/07/31 11:41:20;;;;;;;9.18;5.78;;;21.10;99.90;;;;;;5075895;28;20075;-68
2022/07/31 11:43:47;;;;;;;10.25;5.90;;;21.10;99.90;;;;;;5076181;28;20040;-68
2022/07/31 11:46:23;;;;;;;7.88;5.70;;;21.00;99.90;;;;;;5078759;28;20032;-68
2022/07/31 11:48:51;;;;;;;12.27;6.47;;;20.90;99.90;;;;;;5094262;28;20044;-68
2022/07/31 11:51:18;;;;;;;10.23;6.57;;;20.80;99.90;;;;;;5094913;28;20040;-69
2022/07/31 11:53:44;;;;;;;10.73;6.78;;;20.80;99.90;;;;;;5078450;28;20103;-67
2022/07/31 11:56:09;;;;;;;10.45;6.47;;;20.80;99.90;;;;;;5075596;28;20098;-66
2022/07/31 11:58:47;;;;;;;7.75;5.68;;;20.80;99.90;;;;;;5075846;28;20048;-67
2022/07/31 12:01:12;;;;;;;10.50;7.05;;;20.70;99.90;;;;;;5075804;28;20059;-69
2022/07/31 12:03:39;;;;;;;13.57;8.10;;;20.50;99.90;;;;;;5083325;28;20372;-69
2022/07/31 12:06:06;;;;;;;11.82;6.78;;;20.50;99.90;;;;;;5089397;28;20059;-68
2022/07/31 12:08:34;;;;;;;10.55;6.72;;;20.40;99.90;;;;;;5092203;28;20440;-68
2022/07/31 12:11:01;;;;;;;12.68;6.72;;;20.50;99.90;;;;;;5094912;28;20048;-67
2022/07/31 12:13:28;;;;;;;11.20;7.20;;;20.40;99.90;;;;;;5095932;28;20463;-67
2022/07/31 12:15:54;;;;;;;14.07;6.95;;;20.50;99.90;;;;;;5095648;28;20051;-68
2022/07/31 12:18:20;;;;;;;12.82;8.25;;;20.40;99.90;;;;;;5095208;28;20040;-68
2022/07/31 12:21:01;;;;;;;11.00;7.63;;;20.40;99.90;;;;;;5095630;28;20040;-67
2022/07/31 12:23:38;;;;;;;10.45;6.63;;;20.20;99.90;;;;;;5095452;28;20459;-67
2022/07/31 12:26:04;;;;;;;10.50;7.00;;;20.10;99.90;;;;;;5075295;28;20161;-67
2022/07/31 12:28:30;;;;;;;10.45;6.63;;;20.10;99.90;;;;;;5082349;28;20039;-67
2022/07/31 12:30:59;;;;;;;9.82;6.43;;;20.00;99.90;;;;;;5094603;28;20032;-67
2022/07/31 12:33:28;;;;;;;10.90;6.90;;;20.00;99.90;;;;;;5094971;28;20098;-66
2022/07/31 12:35:54;;;;;;;11.02;7.00;;;20.00;99.90;;;;;;5094962;28;20040;-67
2022/07/31 12:38:26;;;;;;;11.45;7.22;;;20.00;99.90;;;;;;5094153;28;20521;-66
2022/07/31 12:41:04;;;;;;;11.68;7.45;;;20.00;99.90;;;;;;5091461;28;20087;-66
2022/07/31 12:43:31;;;;;;;10.88;6.97;;;20.00;99.90;;;;;;5081213;28;20054;-66
2022/07/31 12:46:01;;;;;;;12.18;7.32;;;20.00;99.90;;;;;;5075200;28;20051;-66